sensor_id;sensor_type;location;lat;lon;timestamp;temperature;humidity
11246;DHT22;59870;50.106;8.580;2023-04-03T04:41:05;7.40;76.80
11246;DHT22;59870;50.106;8.580;2023-04-03T04:43:33;8.20;76.60
11246;DHT22;59870;50.106;8.580;2023-04-03T04:46:02;7.40;76.20
11246;DHT22;59870;50.106;8.580;2023-04-03T04:48:35;7.50;76.60
11246;DHT22;59870;50.106;8.580;2023-04-03T04:51:04;7.40;76.60
11246;DHT22;59870;50.106;8.580;2023-04-03T04:53:32;7.40;76.50
11246;DHT22;59870;50.106;8.580;2023-04-03T04:56:00;7.30;76.20
11246;DHT22;59870;50.106;8.580;2023-04-03T04:58:29;7.30;76.30
11246;DHT22;59870;50.106;8.580;2023-04-03T05:01:02;7.70;77.10
11246;DHT22;59870;50.106;8.580;2023-04-03T05:03:34;7.10;77.30
11246;DHT22;59870;50.106;8.580;2023-04-03T05:07:07;7.10;77.60
11246;DHT22;59870;50.106;8.580;2023-04-03T05:09:45;7.20;76.20
11246;DHT22;59870;50.106;8.580;2023-04-03T05:12:14;7.00;77.00
11246;DHT22;59870;50.106;8.580;2023-04-03T05:14:48;7.00;77.30
11246;DHT22;59870;50.106;8.580;2023-04-03T05:17:16;7.00;77.60
11246;DHT22;59870;50.106;8.580;2023-04-03T05:19:49;7.00;77.60
11246;DHT22;59870;50.106;8.580;2023-04-03T05:22:20;7.00;77.50
11246;DHT22;59870;50.106;8.580;2023-04-03T05:24:47;7.00;78.10
11246;DHT22;59870;50.106;8.580;2023-04-03T05:27:19;7.00;78.30
11246;DHT22;59870;50.106;8.580;2023-04-03T05:29:52;7.10;78.10
11246;DHT22;59870;50.106;8.580;2023-04-03T05:32:23;7.10;78.50
11246;DHT22;59870;50.106;8.580;2023-04-03T05:35:00;7.20;78.80
11246;DHT22;59870;50.106;8.580;2023-04-03T05:37:29;7.80;79.00
11246;DHT22;59870;50.106;8.580;2023-04-03T05:39:57;7.10;78.10
11246;DHT22;59870;50.106;8.580;2023-04-03T05:42:25;7.00;78.10
11246;DHT22;59870;50.106;8.580;2023-04-03T05:44:53;7.00;78.50
11246;DHT22;59870;50.106;8.580;2023-04-03T05:47:21;7.00;78.70
11246;DHT22;59870;50.106;8.580;2023-04-03T05:49:49;7.10;78.40
11246;DHT22;59870;50.106;8.580;2023-04-03T05:52:26;7.20;78.10
11246;DHT22;59870;50.106;8.580;2023-04-03T05:54:55;7.30;78.10
11246;DHT22;59870;50.106;8.580;2023-04-03T05:57:26;7.30;78.30
11246;DHT22;59870;50.106;8.580;2023-04-03T05:59:54;7.30;77.60
11246;DHT22;59870;50.106;8.580;2023-04-03T06:02:24;7.30;77.40
11246;DHT22;59870;50.106;8.580;2023-04-03T06:04:53;7.40;77.50
11246;DHT22;59870;50.106;8.580;2023-04-03T06:07:24;7.40;77.40
11246;DHT22;59870;50.106;8.580;2023-04-03T06:09:57;7.50;77.50
11246;DHT22;59870;50.106;8.580;2023-04-03T06:12:25;7.70;77.40
11246;DHT22;59870;50.106;8.580;2023-04-03T06:14:55;7.90;77.10
11246;DHT22;59870;50.106;8.580;2023-04-03T06:17:23;8.50;75.70
11246;DHT22;59870;50.106;8.580;2023-04-03T06:19:50;8.10;75.40
11246;DHT22;59870;50.106;8.580;2023-04-03T06:22:18;8.10;74.60
11246;DHT22;59870;50.106;8.580;2023-04-03T06:24:46;8.10;74.80
11246;DHT22;59870;50.106;8.580;2023-04-03T06:27:13;8.10;74.70
11246;DHT22;59870;50.106;8.580;2023-04-03T06:29:41;8.20;74.80
11246;DHT22;59870;50.106;8.580;2023-04-03T06:32:08;8.50;75.40
11246;DHT22;59870;50.106;8.580;2023-04-03T06:34:35;8.30;74.40
11246;DHT22;59870;50.106;8.580;2023-04-03T06:37:03;8.40;73.80
11246;DHT22;59870;50.106;8.580;2023-04-03T06:39:31;8.30;73.30
11246;DHT22;59870;50.106;8.580;2023-04-03T06:41:58;8.40;73.50
11246;DHT22;59870;50.106;8.580;2023-04-03T06:44:33;8.40;73.80
11246;DHT22;59870;50.106;8.580;2023-04-03T06:47:01;8.40;73.80
11246;DHT22;59870;50.106;8.580;2023-04-03T06:49:29;8.40;74.50
11246;DHT22;59870;50.106;8.580;2023-04-03T06:51:56;8.30;73.10
11246;DHT22;59870;50.106;8.580;2023-04-03T06:54:24;8.30;73.20
11246;DHT22;59870;50.106;8.580;2023-04-03T06:56:52;8.10;73.50
11246;DHT22;59870;50.106;8.580;2023-04-03T06:59:20;8.10;73.60
11246;DHT22;59870;50.106;8.580;2023-04-03T07:01:47;8.00;75.20
11246;DHT22;59870;50.106;8.580;2023-04-03T07:04:15;8.00;74.30
11246;DHT22;59870;50.106;8.580;2023-04-03T07:06:43;8.10;74.60
11246;DHT22;59870;50.106;8.580;2023-04-03T07:09:11;8.20;74.20
11246;DHT22;59870;50.106;8.580;2023-04-03T07:11:38;8.40;74.40
11246;DHT22;59870;50.106;8.580;2023-04-03T07:14:07;8.60;74.00
11246;DHT22;59870;50.106;8.580;2023-04-03T07:16:35;8.90;73.70
11246;DHT22;59870;50.106;8.580;2023-04-03T07:19:03;9.20;72.50
11246;DHT22;59870;50.106;8.580;2023-04-03T07:21:33;9.50;72.10
11246;DHT22;59870;50.106;8.580;2023-04-03T07:24:01;9.80;71.00
11246;DHT22;59870;50.106;8.580;2023-04-03T07:26:30;10.20;69.00
11246;DHT22;59870;50.106;8.580;2023-04-03T07:28:57;10.30;67.70
11246;DHT22;59870;50.106;8.580;2023-04-03T07:31:25;10.60;67.90
11246;DHT22;59870;50.106;8.580;2023-04-03T07:34:18;11.00;67.70
11246;DHT22;59870;50.106;8.580;2023-04-03T07:36:46;11.50;65.90
11246;DHT22;59870;50.106;8.580;2023-04-03T07:39:14;11.80;64.80
11246;DHT22;59870;50.106;8.580;2023-04-03T07:41:42;12.00;64.00
11246;DHT22;59870;50.106;8.580;2023-04-03T07:44:13;12.30;64.00
11246;DHT22;59870;50.106;8.580;2023-04-03T07:46:40;12.70;63.20
11246;DHT22;59870;50.106;8.580;2023-04-03T07:49:10;12.60;62.30
11246;DHT22;59870;50.106;8.580;2023-04-03T07:55:24;12.90;61.40
11246;DHT22;59870;50.106;8.580;2023-04-03T07:57:52;13.30;61.30
11246;DHT22;59870;50.106;8.580;2023-04-03T08:00:20;13.60;61.80
11246;DHT22;59870;50.106;8.580;2023-04-03T08:02:47;13.90;58.50
11246;DHT22;59870;50.106;8.580;2023-04-03T08:05:18;14.20;59.10
11246;DHT22;59870;50.106;8.580;2023-04-03T08:07:46;14.50;58.10
11246;DHT22;59870;50.106;8.580;2023-04-03T08:10:14;14.80;57.20
11246;DHT22;59870;50.106;8.580;2023-04-03T08:12:42;14.90;55.40
11246;DHT22;59870;50.106;8.580;2023-04-03T08:15:09;15.60;55.80
11246;DHT22;59870;50.106;8.580;2023-04-03T08:17:37;15.00;56.00
11246;DHT22;59870;50.106;8.580;2023-04-03T08:20:05;15.20;56.00
11246;DHT22;59870;50.106;8.580;2023-04-03T08:22:34;15.50;55.20
11246;DHT22;59870;50.106;8.580;2023-04-03T08:25:01;15.50;53.50
11246;DHT22;59870;50.106;8.580;2023-04-03T08:27:29;15.50;54.00
11246;DHT22;59870;50.106;8.580;2023-04-03T08:29:56;16.10;53.80
11246;DHT22;59870;50.106;8.580;2023-04-03T08:32:24;15.50;52.50
11246;DHT22;59870;50.106;8.580;2023-04-03T08:34:52;15.60;53.00
11246;DHT22;59870;50.106;8.580;2023-04-03T08:37:19;15.70;52.40
11246;DHT22;59870;50.106;8.580;2023-04-03T08:39:46;15.80;51.60
11246;DHT22;59870;50.106;8.580;2023-04-03T08:45:28;15.80;51.20
11246;DHT22;59870;50.106;8.580;2023-04-03T08:50:55;16.10;51.10
11246;DHT22;59870;50.106;8.580;2023-04-03T08:53:27;16.30;50.60
11246;DHT22;59870;50.106;8.580;2023-04-03T08:55:56;16.50;49.20
11246;DHT22;59870;50.106;8.580;2023-04-03T08:58:30;16.50;49.30
11246;DHT22;59870;50.106;8.580;2023-04-03T09:01:02;16.80;49.00
11246;DHT22;59870;50.106;8.580;2023-04-03T09:03:36;16.30;48.40
11246;DHT22;59870;50.106;8.580;2023-04-03T09:06:25;16.20;48.00
11246;DHT22;59870;50.106;8.580;2023-04-03T09:09:15;15.90;48.60
11246;DHT22;59870;50.106;8.580;2023-04-03T09:12:11;15.80;49.70
11246;DHT22;59870;50.106;8.580;2023-04-03T09:17:37;15.30;49.40
11246;DHT22;59870;50.106;8.580;2023-04-03T09:22:47;15.10;50.50
11246;DHT22;59870;50.106;8.580;2023-04-03T09:25:33;15.00;49.70
11246;DHT22;59870;50.106;8.580;2023-04-03T09:28:03;14.80;50.80
11246;DHT22;59870;50.106;8.580;2023-04-03T09:30:32;14.10;49.70
11246;DHT22;59870;50.106;8.580;2023-04-03T09:33:04;14.70;50.70
11246;DHT22;59870;50.106;8.580;2023-04-03T09:35:37;14.70;49.40
11246;DHT22;59870;50.106;8.580;2023-04-03T09:38:21;14.60;50.60
11246;DHT22;59870;50.106;8.580;2023-04-03T09:44:35;14.50;51.50
11246;DHT22;59870;50.106;8.580;2023-04-03T09:47:32;13.80;50.60
11246;DHT22;59870;50.106;8.580;2023-04-03T09:50:26;13.60;51.00
11246;DHT22;59870;50.106;8.580;2023-04-03T09:54:43;13.30;50.90
11246;DHT22;59870;50.106;8.580;2023-04-03T10:06:33;13.00;52.80
11246;DHT22;59870;50.106;8.580;2023-04-03T10:09:37;12.90;52.60
11246;DHT22;59870;50.106;8.580;2023-04-03T10:12:29;12.40;53.00
11246;DHT22;59870;50.106;8.580;2023-04-03T10:15:38;12.50;53.30
11246;DHT22;59870;50.106;8.580;2023-04-03T10:19:14;11.60;51.90
11246;DHT22;59870;50.106;8.580;2023-04-03T10:28:05;11.80;52.10
11246;DHT22;59870;50.106;8.580;2023-04-03T10:30:54;11.20;52.30
11246;DHT22;59870;50.106;8.580;2023-04-03T11:02:27;11.50;52.70
11246;DHT22;59870;50.106;8.580;2023-04-03T11:12:46;11.30;53.00
11246;DHT22;59870;50.106;8.580;2023-04-03T11:15:30;11.20;52.60
11246;DHT22;59870;50.106;8.580;2023-04-03T11:18:32;11.30;52.30
11246;DHT22;59870;50.106;8.580;2023-04-03T11:21:45;10.70;52.70
11246;DHT22;59870;50.106;8.580;2023-04-03T11:24:27;11.60;53.10
11246;DHT22;59870;50.106;8.580;2023-04-03T11:27:02;11.20;52.80
11246;DHT22;59870;50.106;8.580;2023-04-03T11:36:55;11.30;52.00
11246;DHT22;59870;50.106;8.580;2023-04-03T11:39:35;11.40;51.20
11246;DHT22;59870;50.106;8.580;2023-04-03T11:42:33;11.80;51.50
11246;DHT22;59870;50.106;8.580;2023-04-03T11:48:05;11.30;51.10
11246;DHT22;59870;50.106;8.580;2023-04-03T11:50:53;11.40;50.40
11246;DHT22;59870;50.106;8.580;2023-04-03T11:53:40;11.80;49.00
11246;DHT22;59870;50.106;8.580;2023-04-03T11:56:28;11.20;48.60
11246;DHT22;59870;50.106;8.580;2023-04-03T12:02:33;10.90;49.40
11246;DHT22;59870;50.106;8.580;2023-04-03T12:05:31;10.20;50.00
11246;DHT22;59870;50.106;8.580;2023-04-03T12:16:26;10.70;49.30
11246;DHT22;59870;50.106;8.580;2023-04-03T12:19:04;10.80;48.20
11246;DHT22;59870;50.106;8.580;2023-04-03T12:29:56;10.60;50.00
11246;DHT22;59870;50.106;8.580;2023-04-03T12:32:47;10.70;49.90
11246;DHT22;59870;50.106;8.580;2023-04-03T12:38:30;10.70;48.50
11246;DHT22;59870;50.106;8.580;2023-04-03T12:47:16;10.50;50.70
11246;DHT22;59870;50.106;8.580;2023-04-03T12:50:33;9.80;49.90
11246;DHT22;59870;50.106;8.580;2023-04-03T12:53:18;10.60;49.40
11246;DHT22;59870;50.106;8.580;2023-04-03T12:55:47;10.60;50.10
11246;DHT22;59870;50.106;8.580;2023-04-03T12:58:27;11.10;50.00
11246;DHT22;59870;50.106;8.580;2023-04-03T13:01:23;10.20;48.40
11246;DHT22;59870;50.106;8.580;2023-04-03T13:04:00;10.10;49.20
11246;DHT22;59870;50.106;8.580;2023-04-03T13:06:49;11.10;49.20
11246;DHT22;59870;50.106;8.580;2023-04-03T13:09:33;10.10;49.30
11246;DHT22;59870;50.106;8.580;2023-04-03T13:12:13;10.60;50.10
11246;DHT22;59870;50.106;8.580;2023-04-03T13:14:54;10.60;50.30
11246;DHT22;59870;50.106;8.580;2023-04-03T13:17:27;10.60;50.20
11246;DHT22;59870;50.106;8.580;2023-04-03T13:25:49;10.10;49.40
11246;DHT22;59870;50.106;8.580;2023-04-03T13:28:21;11.00;49.60
11246;DHT22;59870;50.106;8.580;2023-04-03T13:31:22;10.70;50.30
11246;DHT22;59870;50.106;8.580;2023-04-03T13:40:17;10.70;49.80
11246;DHT22;59870;50.106;8.580;2023-04-03T13:43:23;10.40;50.60
11246;DHT22;59870;50.106;8.580;2023-04-03T14:29:27;10.70;49.40
11246;DHT22;59870;50.106;8.580;2023-04-03T14:32:01;10.70;47.70
11246;DHT22;59870;50.106;8.580;2023-04-03T14:35:13;10.60;48.20
11246;DHT22;59870;50.106;8.580;2023-04-03T14:38:30;10.20;49.30
11246;DHT22;59870;50.106;8.580;2023-04-03T14:41:37;10.80;48.20
11246;DHT22;59870;50.106;8.580;2023-04-03T14:44:55;10.60;47.00
11246;DHT22;59870;50.106;8.580;2023-04-03T14:48:25;10.30;46.70
11246;DHT22;59870;50.106;8.580;2023-04-03T14:51:02;11.30;48.00
11246;DHT22;59870;50.106;8.580;2023-04-03T14:53:34;10.30;47.00
11246;DHT22;59870;50.106;8.580;2023-04-03T14:56:26;10.90;49.10
11246;DHT22;59870;50.106;8.580;2023-04-03T14:59:04;11.00;48.20
11246;DHT22;59870;50.106;8.580;2023-04-03T15:02:02;10.90;48.50
11246;DHT22;59870;50.106;8.580;2023-04-03T15:04:40;10.90;47.80
11246;DHT22;59870;50.106;8.580;2023-04-03T15:07:16;11.00;47.50
11246;DHT22;59870;50.106;8.580;2023-04-03T15:09:50;10.80;47.20
11246;DHT22;59870;50.106;8.580;2023-04-03T15:12:56;10.90;47.60
11246;DHT22;59870;50.106;8.580;2023-04-03T15:15:49;10.90;47.10
11246;DHT22;59870;50.106;8.580;2023-04-03T15:18:43;11.00;48.10
11246;DHT22;59870;50.106;8.580;2023-04-03T15:21:44;11.00;47.30
11246;DHT22;59870;50.106;8.580;2023-04-03T15:28:42;10.50;47.20
11246;DHT22;59870;50.106;8.580;2023-04-03T15:31:40;11.00;47.00
11246;DHT22;59870;50.106;8.580;2023-04-03T15:46:55;10.90;47.20
11246;DHT22;59870;50.106;8.580;2023-04-03T15:50:16;11.10;47.00
11246;DHT22;59870;50.106;8.580;2023-04-03T15:53:18;10.50;47.50
11246;DHT22;59870;50.106;8.580;2023-04-03T16:42:31;10.70;46.20
11246;DHT22;59870;50.106;8.580;2023-04-03T16:46:29;10.50;46.70
11246;DHT22;59870;50.106;8.580;2023-04-03T16:55:09;10.50;46.40
11246;DHT22;59870;50.106;8.580;2023-04-03T16:57:36;10.60;46.70
11246;DHT22;59870;50.106;8.580;2023-04-03T17:04:52;10.60;47.10
11246;DHT22;59870;50.106;8.580;2023-04-03T17:08:10;10.60;46.50
11246;DHT22;59870;50.106;8.580;2023-04-03T17:17:11;10.50;47.60
11246;DHT22;59870;50.106;8.580;2023-04-03T17:19:39;10.50;47.00
11246;DHT22;59870;50.106;8.580;2023-04-03T17:22:08;10.50;47.30
11246;DHT22;59870;50.106;8.580;2023-04-03T17:24:40;10.40;46.90
11246;DHT22;59870;50.106;8.580;2023-04-03T17:27:07;10.90;47.80
11246;DHT22;59870;50.106;8.580;2023-04-03T17:29:37;10.50;48.30
11246;DHT22;59870;50.106;8.580;2023-04-03T17:32:05;10.50;47.40
11246;DHT22;59870;50.106;8.580;2023-04-03T17:34:33;10.40;47.30
11246;DHT22;59870;50.106;8.580;2023-04-03T17:37:00;10.30;47.40
11246;DHT22;59870;50.106;8.580;2023-04-03T17:39:28;10.20;47.30
11246;DHT22;59870;50.106;8.580;2023-04-03T17:41:55;10.10;46.90
11246;DHT22;59870;50.106;8.580;2023-04-03T17:44:22;10.10;47.40
11246;DHT22;59870;50.106;8.580;2023-04-03T17:46:50;10.00;47.50
11246;DHT22;59870;50.106;8.580;2023-04-03T17:49:17;9.90;48.50
11246;DHT22;59870;50.106;8.580;2023-04-03T17:51:46;9.90;48.40
11246;DHT22;59870;50.106;8.580;2023-04-03T17:54:15;9.90;48.90
11246;DHT22;59870;50.106;8.580;2023-04-03T17:56:42;9.90;48.70
11246;DHT22;59870;50.106;8.580;2023-04-03T17:59:15;9.80;48.70
11246;DHT22;59870;50.106;8.580;2023-04-03T18:01:45;9.80;49.20
11246;DHT22;59870;50.106;8.580;2023-04-03T18:04:13;9.80;49.70
11246;DHT22;59870;50.106;8.580;2023-04-03T18:06:52;9.80;49.20
11246;DHT22;59870;50.106;8.580;2023-04-03T18:09:26;9.80;49.50
11246;DHT22;59870;50.106;8.580;2023-04-03T18:11:56;9.80;49.80
11246;DHT22;59870;50.106;8.580;2023-04-03T18:14:26;9.80;50.20
11246;DHT22;59870;50.106;8.580;2023-04-03T18:16:54;9.70;50.50
11246;DHT22;59870;50.106;8.580;2023-04-03T18:19:25;9.60;50.50
11246;DHT22;59870;50.106;8.580;2023-04-03T18:21:58;9.70;50.90
11246;DHT22;59870;50.106;8.580;2023-04-03T18:24:28;9.80;50.90
11246;DHT22;59870;50.106;8.580;2023-04-03T18:27:02;9.60;51.60
11246;DHT22;59870;50.106;8.580;2023-04-03T18:29:32;9.50;51.00
11246;DHT22;59870;50.106;8.580;2023-04-03T18:32:02;9.50;51.30
11246;DHT22;59870;50.106;8.580;2023-04-03T18:34:32;9.40;51.30
11246;DHT22;59870;50.106;8.580;2023-04-03T18:37:02;9.40;50.70
11246;DHT22;59870;50.106;8.580;2023-04-03T18:39:30;9.30;50.80
11246;DHT22;59870;50.106;8.580;2023-04-03T18:42:02;10.00;50.80
11246;DHT22;59870;50.106;8.580;2023-04-03T18:44:32;9.20;51.40
11246;DHT22;59870;50.106;8.580;2023-04-03T18:47:00;9.20;50.70
11246;DHT22;59870;50.106;8.580;2023-04-03T18:49:30;9.20;50.40
11246;DHT22;59870;50.106;8.580;2023-04-03T18:51:59;9.10;51.40
11246;DHT22;59870;50.106;8.580;2023-04-03T18:54:27;9.10;50.50
11246;DHT22;59870;50.106;8.580;2023-04-03T18:56:54;9.60;51.00
11246;DHT22;59870;50.106;8.580;2023-04-03T18:59:22;9.10;50.70
11246;DHT22;59870;50.106;8.580;2023-04-03T19:01:51;9.10;51.20
11246;DHT22;59870;50.106;8.580;2023-04-03T19:04:18;9.10;50.90
11246;DHT22;59870;50.106;8.580;2023-04-03T19:06:51;9.10;50.80
11246;DHT22;59870;50.106;8.580;2023-04-03T19:09:19;9.00;51.40
11246;DHT22;59870;50.106;8.580;2023-04-03T19:11:52;8.90;51.10
11246;DHT22;59870;50.106;8.580;2023-04-03T19:14:19;8.90;50.70
11246;DHT22;59870;50.106;8.580;2023-04-03T19:16:49;8.80;50.70
11246;DHT22;59870;50.106;8.580;2023-04-03T19:19:17;8.70;51.50
11246;DHT22;59870;50.106;8.580;2023-04-03T19:21:49;8.70;51.60
11246;DHT22;59870;50.106;8.580;2023-04-03T19:24:20;8.70;51.30
11246;DHT22;59870;50.106;8.580;2023-04-03T19:26:48;8.70;51.20
11246;DHT22;59870;50.106;8.580;2023-04-03T19:29:15;8.70;51.10
11246;DHT22;59870;50.106;8.580;2023-04-03T19:31:43;9.10;51.70
11246;DHT22;59870;50.106;8.580;2023-04-03T19:34:11;8.60;51.50
11246;DHT22;59870;50.106;8.580;2023-04-03T19:36:38;9.10;51.90
11246;DHT22;59870;50.106;8.580;2023-04-03T19:39:06;8.60;51.40
11246;DHT22;59870;50.106;8.580;2023-04-03T19:41:35;8.60;51.60
11246;DHT22;59870;50.106;8.580;2023-04-03T19:44:04;8.50;52.40
11246;DHT22;59870;50.106;8.580;2023-04-03T19:46:34;8.50;52.30
11246;DHT22;59870;50.106;8.580;2023-04-03T19:49:01;8.50;52.50
11246;DHT22;59870;50.106;8.580;2023-04-03T19:51:29;8.40;52.20
11246;DHT22;59870;50.106;8.580;2023-04-03T19:53:57;8.40;52.40
11246;DHT22;59870;50.106;8.580;2023-04-03T19:56:25;8.30;52.40
11246;DHT22;59870;50.106;8.580;2023-04-03T19:58:53;8.30;52.50
11246;DHT22;59870;50.106;8.580;2023-04-03T20:01:24;8.30;52.70
11246;DHT22;59870;50.106;8.580;2023-04-03T20:03:53;8.20;52.60
11246;DHT22;59870;50.106;8.580;2023-04-03T20:06:21;8.20;53.50
11246;DHT22;59870;50.106;8.580;2023-04-03T20:08:52;8.10;52.80
11246;DHT22;59870;50.106;8.580;2023-04-03T20:11:21;8.60;52.80
11246;DHT22;59870;50.106;8.580;2023-04-03T20:13:51;8.00;53.20
11246;DHT22;59870;50.106;8.580;2023-04-03T20:16:23;8.20;53.10
11246;DHT22;59870;50.106;8.580;2023-04-03T20:18:55;7.90;52.40
11246;DHT22;59870;50.106;8.580;2023-04-03T20:21:31;8.30;53.10
11246;DHT22;59870;50.106;8.580;2023-04-03T20:24:03;8.00;53.60
11246;DHT22;59870;50.106;8.580;2023-04-03T20:26:50;7.90;53.00
11246;DHT22;59870;50.106;8.580;2023-04-03T20:29:37;7.70;53.10
11246;DHT22;59870;50.106;8.580;2023-04-03T20:32:11;7.90;53.10
11246;DHT22;59870;50.106;8.580;2023-04-03T20:34:51;7.90;53.30
11246;DHT22;59870;50.106;8.580;2023-04-03T20:37:31;8.40;53.40
11246;DHT22;59870;50.106;8.580;2023-04-03T20:40:02;8.40;53.30
11246;DHT22;59870;50.106;8.580;2023-04-03T20:42:31;7.90;53.70
11246;DHT22;59870;50.106;8.580;2023-04-03T20:44:59;8.40;54.00
11246;DHT22;59870;50.106;8.580;2023-04-03T20:47:27;8.30;54.00
11246;DHT22;59870;50.106;8.580;2023-04-03T20:49:55;8.20;54.10
11246;DHT22;59870;50.106;8.580;2023-04-03T20:52:23;7.70;54.10
11246;DHT22;59870;50.106;8.580;2023-04-03T20:54:54;7.70;54.10
11246;DHT22;59870;50.106;8.580;2023-04-03T20:57:21;7.70;54.10
11246;DHT22;59870;50.106;8.580;2023-04-03T20:59:51;7.30;54.00
11246;DHT22;59870;50.106;8.580;2023-04-03T21:02:19;8.00;54.90
11246;DHT22;59870;50.106;8.580;2023-04-03T21:04:51;8.00;54.60
11246;DHT22;59870;50.106;8.580;2023-04-03T21:21:36;7.50;55.40
11246;DHT22;59870;50.106;8.580;2023-04-03T21:24:06;7.30;55.50
11246;DHT22;59870;50.106;8.580;2023-04-03T21:26:37;7.30;55.50
11246;DHT22;59870;50.106;8.580;2023-04-03T21:29:07;7.20;56.30
11246;DHT22;59870;50.106;8.580;2023-04-03T21:31:58;7.20;55.90
11246;DHT22;59870;50.106;8.580;2023-04-03T21:34:29;7.10;55.40
11246;DHT22;59870;50.106;8.580;2023-04-03T21:37:01;6.50;55.10
11246;DHT22;59870;50.106;8.580;2023-04-03T21:39:30;7.50;55.70
11246;DHT22;59870;50.106;8.580;2023-04-03T21:41:58;7.00;55.00
11246;DHT22;59870;50.106;8.580;2023-04-03T21:44:27;7.40;55.70
11246;DHT22;59870;50.106;8.580;2023-04-03T21:46:55;7.00;55.40
11246;DHT22;59870;50.106;8.580;2023-04-03T21:49:24;6.80;55.10
11246;DHT22;59870;50.106;8.580;2023-04-03T21:51:53;7.70;56.10
11246;DHT22;59870;50.106;8.580;2023-04-03T21:54:20;7.00;55.10
11246;DHT22;59870;50.106;8.580;2023-04-03T21:56:48;7.40;56.10
11246;DHT22;59870;50.106;8.580;2023-04-03T21:59:18;7.40;56.20
11246;DHT22;59870;50.106;8.580;2023-04-03T22:01:45;7.40;55.90
11246;DHT22;59870;50.106;8.580;2023-04-03T22:04:13;6.90;56.40
11246;DHT22;59870;50.106;8.580;2023-04-03T22:06:41;6.90;56.30
11246;DHT22;59870;50.106;8.580;2023-04-03T22:09:10;6.80;56.30
11246;DHT22;59870;50.106;8.580;2023-04-03T22:11:38;6.80;56.40
11246;DHT22;59870;50.106;8.580;2023-04-03T22:14:12;6.80;57.10
11246;DHT22;59870;50.106;8.580;2023-04-03T22:16:39;6.80;56.60
11246;DHT22;59870;50.106;8.580;2023-04-03T22:19:07;7.50;57.20
11246;DHT22;59870;50.106;8.580;2023-04-03T22:21:35;6.70;56.00
11246;DHT22;59870;50.106;8.580;2023-04-03T22:24:04;6.70;55.70
11246;DHT22;59870;50.106;8.580;2023-04-03T22:26:32;6.80;56.30
11246;DHT22;59870;50.106;8.580;2023-04-03T22:29:01;7.10;56.50
11246;DHT22;59870;50.106;8.580;2023-04-03T22:31:30;6.50;55.70
11246;DHT22;59870;50.106;8.580;2023-04-03T22:33:58;6.90;56.10
11246;DHT22;59870;50.106;8.580;2023-04-03T22:36:30;6.60;56.80
11246;DHT22;59870;50.106;8.580;2023-04-03T22:39:03;6.40;55.80
11246;DHT22;59870;50.106;8.580;2023-04-03T22:41:34;6.50;57.00
11246;DHT22;59870;50.106;8.580;2023-04-03T22:44:03;6.60;56.00
11246;DHT22;59870;50.106;8.580;2023-04-03T22:46:33;7.10;56.70
11246;DHT22;59870;50.106;8.580;2023-04-03T22:49:03;6.50;56.50
11246;DHT22;59870;50.106;8.580;2023-04-03T22:51:31;6.50;55.90
11246;DHT22;59870;50.106;8.580;2023-04-03T22:54:02;5.80;55.70
11246;DHT22;59870;50.106;8.580;2023-04-03T22:56:36;6.40;56.40
11246;DHT22;59870;50.106;8.580;2023-04-03T22:59:12;6.40;56.80
11246;DHT22;59870;50.106;8.580;2023-04-03T23:01:42;6.40;56.30
11246;DHT22;59870;50.106;8.580;2023-04-03T23:04:14;6.90;57.10
11246;DHT22;59870;50.106;8.580;2023-04-03T23:06:56;6.30;56.90
11246;DHT22;59870;50.106;8.580;2023-04-03T23:10:01;6.30;58.20
11246;DHT22;59870;50.106;8.580;2023-04-03T23:12:39;6.40;56.80
11246;DHT22;59870;50.106;8.580;2023-04-03T23:15:12;6.70;57.70
11246;DHT22;59870;50.106;8.580;2023-04-03T23:17:49;6.30;58.00
11246;DHT22;59870;50.106;8.580;2023-04-03T23:25:56;6.20;58.10
11246;DHT22;59870;50.106;8.580;2023-04-03T23:28:57;6.10;58.70
11246;DHT22;59870;50.106;8.580;2023-04-03T23:32:04;6.20;58.30
11246;DHT22;59870;50.106;8.580;2023-04-03T23:35:30;6.10;59.30
11246;DHT22;59870;50.106;8.580;2023-04-03T23:38:17;6.00;58.50
11246;DHT22;59870;50.106;8.580;2023-04-03T23:40:53;6.00;59.00
11246;DHT22;59870;50.106;8.580;2023-04-03T23:43:42;5.90;59.10
11246;DHT22;59870;50.106;8.580;2023-04-03T23:46:16;5.90;58.90
11246;DHT22;59870;50.106;8.580;2023-04-03T23:48:48;5.80;59.50
11246;DHT22;59870;50.106;8.580;2023-04-03T23:51:16;6.10;59.50
11246;DHT22;59870;50.106;8.580;2023-04-03T23:53:43;6.10;59.70
11246;DHT22;59870;50.106;8.580;2023-04-03T23:56:11;5.70;59.50
11246;DHT22;59870;50.106;8.580;2023-04-03T23:58:39;5.60;59.80
